createdAt,value
2022-09-06T00:01:12.150Z,21.07
2022-09-06T00:03:41.774Z,21.11
2022-09-06T00:06:13.371Z,21.07
2022-09-06T00:08:42.977Z,20.96
2022-09-06T00:11:12.331Z,20.94
2022-09-06T00:13:41.518Z,20.96
2022-09-06T00:16:12.850Z,20.97
2022-09-06T00:18:42.093Z,20.92
2022-09-06T00:21:20.784Z,20.93
2022-09-06T00:23:49.684Z,20.87
2022-09-06T00:26:18.170Z,20.78
2022-09-06T00:28:47.468Z,20.73
2022-09-06T00:31:18.415Z,20.69
2022-09-06T00:33:48.109Z,20.70
2022-09-06T00:36:18.887Z,20.73
2022-09-06T00:38:47.415Z,20.79
2022-09-06T00:41:18.031Z,20.73
2022-09-06T00:43:46.972Z,20.65
2022-09-06T00:46:18.558Z,20.57
2022-09-06T00:48:50.257Z,20.62
2022-09-06T00:51:23.887Z,20.59
2022-09-06T00:53:53.079Z,20.62
2022-09-06T00:56:22.308Z,20.57
2022-09-06T00:58:51.042Z,20.48
2022-09-06T01:01:20.370Z,20.44
2022-09-06T01:03:49.182Z,20.38
2022-09-06T01:06:25.686Z,20.44
2022-09-06T01:09:07.037Z,20.44
2022-09-06T01:11:55.185Z,20.39
2022-09-06T01:14:37.808Z,20.29
2022-09-06T01:17:16.746Z,20.29
2022-09-06T01:20:10.990Z,20.25
2022-09-06T01:23:06.170Z,20.21
2022-09-06T01:25:40.205Z,20.19
2022-09-06T01:28:27.440Z,20.19
2022-09-06T01:31:06.195Z,20.16
2022-09-06T01:33:42.707Z,20.15
2022-09-06T01:36:16.132Z,20.14
2022-09-06T01:38:45.818Z,20.11
2022-09-06T01:41:14.180Z,20.05
2022-09-06T01:43:48.481Z,20.08
2022-09-06T01:46:26.412Z,20.08
2022-09-06T01:49:22.610Z,20.05
2022-09-06T01:52:05.819Z,20.05
2022-09-06T01:54:48.250Z,19.92
2022-09-06T01:57:30.367Z,19.85
2022-09-06T02:00:08.504Z,19.86
2022-09-06T02:02:52.744Z,19.86
2022-09-06T02:05:27.448Z,19.84
2022-09-06T02:08:00.590Z,19.81
2022-09-06T02:10:34.833Z,19.80
2022-09-06T02:13:07.566Z,19.75
2022-09-06T02:15:40.408Z,19.68
2022-09-06T02:18:12.959Z,19.71
2022-09-06T02:20:43.759Z,19.77
2022-09-06T02:23:13.955Z,19.78
2022-09-06T02:25:48.781Z,19.74
2022-09-06T02:28:18.121Z,19.69
2022-09-06T02:30:51.896Z,19.68
2022-09-06T02:33:24.001Z,19.64
2022-09-06T02:35:55.576Z,19.63
2022-09-06T02:38:26.633Z,19.45
2022-09-06T02:40:56.753Z,19.50
2022-09-06T02:43:26.144Z,19.49
2022-09-06T02:45:55.829Z,19.48
2022-09-06T02:48:24.583Z,19.38
2022-09-06T02:50:53.783Z,19.39
2022-09-06T02:53:22.251Z,19.40
2022-09-06T02:55:51.194Z,19.33
2022-09-06T02:58:19.527Z,19.28
2022-09-06T03:00:48.380Z,19.25
2022-09-06T03:03:19.091Z,19.18
2022-09-06T03:05:48.659Z,19.10
2022-09-06T03:08:18.158Z,19.11
2022-09-06T03:10:50.379Z,19.14
2022-09-06T03:13:19.284Z,19.13
2022-09-06T03:15:52.651Z,19.09
2022-09-06T03:18:23.065Z,19.02
2022-09-06T03:20:51.981Z,18.88
2022-09-06T03:23:22.947Z,18.85
2022-09-06T03:25:51.626Z,18.77
2022-09-06T03:28:21.842Z,18.73
2022-09-06T03:30:51.970Z,18.60
2022-09-06T03:33:23.091Z,18.62
2022-09-06T03:35:54.391Z,18.62
2022-09-06T03:38:23.976Z,18.70
2022-09-06T03:40:52.874Z,18.71
2022-09-06T03:43:23.650Z,18.75
2022-09-06T03:45:54.760Z,18.68
2022-09-06T03:48:26.799Z,18.70
2022-09-06T03:50:58.236Z,18.64
2022-09-06T03:53:28.183Z,18.57
2022-09-06T03:55:59.120Z,18.61
2022-09-06T03:58:32.057Z,18.61
2022-09-06T04:01:02.182Z,18.67
2022-09-06T04:03:32.413Z,18.66
2022-09-06T04:06:01.038Z,18.60
2022-09-06T04:08:30.325Z,18.58
2022-09-06T04:11:00.463Z,18.49
2022-09-06T04:13:30.293Z,18.36
2022-09-06T04:15:59.324Z,18.27
2022-09-06T04:18:28.274Z,18.22
2022-09-06T04:20:59.162Z,18.26
2022-09-06T04:23:29.028Z,18.21
2022-09-06T04:26:00.035Z,18.19
2022-09-06T04:28:29.165Z,18.21
2022-09-06T04:31:04.325Z,18.19
2022-09-06T04:33:34.822Z,18.10
2022-09-06T04:36:08.944Z,17.99
2022-09-06T04:38:38.931Z,18.03
2022-09-06T04:41:08.909Z,18.09
2022-09-06T04:43:37.706Z,18.10
2022-09-06T04:46:08.163Z,17.93
2022-09-06T04:48:37.014Z,17.83
2022-09-06T04:51:07.526Z,17.78
2022-09-06T04:53:36.119Z,17.84
2022-09-06T04:56:04.529Z,17.93
2022-09-06T04:58:33.473Z,17.97
2022-09-06T05:01:02.590Z,18.02
2022-09-06T05:03:30.947Z,18.03
2022-09-06T05:08:59.174Z,18.11
2022-09-06T05:11:27.608Z,18.14
2022-09-06T05:13:57.092Z,18.07
2022-09-06T05:16:25.516Z,18.04
2022-09-06T05:18:54.740Z,18.09
2022-09-06T05:21:24.697Z,18.10
2022-09-06T05:23:57.986Z,18.13
2022-09-06T05:26:27.282Z,18.11
2022-09-06T05:28:56.251Z,18.16
2022-09-06T05:31:29.523Z,18.19
2022-09-06T05:33:58.482Z,18.22
2022-09-06T05:36:30.187Z,18.24
2022-09-06T05:38:59.410Z,18.27
2022-09-06T05:41:28.419Z,18.24
2022-09-06T05:43:57.495Z,18.17
2022-09-06T05:46:26.919Z,18.18
2022-09-06T05:48:56.156Z,18.14
2022-09-06T05:51:25.083Z,18.22
2022-09-06T05:53:55.338Z,18.23
2022-09-06T05:56:25.227Z,18.26
2022-09-06T05:58:54.084Z,18.23
2022-09-06T06:01:25.073Z,18.24
2022-09-06T06:03:55.916Z,18.24
2022-09-06T06:06:25.682Z,18.21
2022-09-06T06:08:56.287Z,18.29
2022-09-06T06:11:26.407Z,18.40
2022-09-06T06:13:55.449Z,18.42
2022-09-06T06:16:25.363Z,18.42
2022-09-06T06:18:53.799Z,18.46
2022-09-06T06:21:24.045Z,18.53
2022-09-06T06:23:55.557Z,18.53
2022-09-06T06:26:24.435Z,18.57
2022-09-06T06:28:53.375Z,18.61
2022-09-06T06:31:22.600Z,18.61
2022-09-06T06:33:52.322Z,18.71
2022-09-06T06:36:22.747Z,18.79
2022-09-06T06:38:54.007Z,18.87
2022-09-06T06:41:25.665Z,18.91
2022-09-06T06:43:54.752Z,18.85
2022-09-06T06:46:25.889Z,18.82
2022-09-06T06:48:55.587Z,18.91
2022-09-06T06:51:26.736Z,18.90
2022-09-06T06:53:56.762Z,18.95
2022-09-06T06:56:28.283Z,19.08
2022-09-06T06:58:58.680Z,19.09
2022-09-06T07:01:29.125Z,19.14
2022-09-06T07:03:58.861Z,19.34
2022-09-06T07:09:19.662Z,19.46
2022-09-06T07:11:50.773Z,19.63
2022-09-06T07:14:19.869Z,19.76
2022-09-06T07:16:48.292Z,19.88
2022-09-06T07:22:06.399Z,20.04
2022-09-06T07:24:35.394Z,20.14
2022-09-06T07:29:53.613Z,20.31
2022-09-06T07:32:21.996Z,20.27
2022-09-06T07:34:50.882Z,20.30
2022-09-06T07:37:19.546Z,20.41
2022-09-06T07:39:47.982Z,20.53
2022-09-06T07:42:18.129Z,20.75
2022-09-06T07:44:46.694Z,20.87
2022-09-06T07:53:15.546Z,21.30
2022-09-06T07:55:44.869Z,21.32
2022-09-06T07:58:14.696Z,21.40
2022-09-06T08:00:43.309Z,21.43
2022-09-06T08:03:11.702Z,21.39
2022-09-06T08:11:18.473Z,21.52
2022-09-06T08:13:51.251Z,21.54
2022-09-06T08:16:20.155Z,21.59
2022-09-06T08:18:53.476Z,21.62
2022-09-06T08:21:23.882Z,21.60
2022-09-06T08:23:54.619Z,21.64
2022-09-06T08:26:24.663Z,21.68
2022-09-06T08:29:00.604Z,21.80
2022-09-06T08:31:30.252Z,21.85
2022-09-06T08:34:00.573Z,21.90
2022-09-06T08:36:31.164Z,21.97
2022-09-06T08:39:00.450Z,21.99
2022-09-06T08:41:34.269Z,22.13
2022-09-06T08:47:00.853Z,22.33
2022-09-06T08:49:33.162Z,22.39
2022-09-06T08:52:24.915Z,22.55
2022-09-06T08:55:01.671Z,22.80
2022-09-06T08:57:45.633Z,23.11
2022-09-06T09:00:15.573Z,23.39
2022-09-06T09:02:46.573Z,23.60
2022-09-06T09:05:23.266Z,23.85
2022-09-06T09:08:01.285Z,23.89
2022-09-06T09:10:33.083Z,23.93
2022-09-06T09:13:04.721Z,24.08
2022-09-06T09:15:40.458Z,24.36
2022-09-06T09:18:09.387Z,24.57
2022-09-06T09:20:39.168Z,24.84
2022-09-06T09:23:07.566Z,25.06
2022-09-06T09:25:39.538Z,25.33
2022-09-06T09:28:15.306Z,25.35
2022-09-06T09:30:50.982Z,25.56
2022-09-06T09:33:29.868Z,25.56
2022-09-06T09:36:00.669Z,25.59
2022-09-06T09:38:32.012Z,25.83
2022-09-06T09:41:02.865Z,26.10
2022-09-06T09:43:32.790Z,26.40
2022-09-06T09:46:17.811Z,26.80
2022-09-06T09:49:02.279Z,27.14
2022-09-06T09:51:32.074Z,27.31
2022-09-06T09:54:03.761Z,27.36
2022-09-06T09:56:38.240Z,27.54
2022-09-06T09:59:19.207Z,27.52
2022-09-06T10:01:49.383Z,27.74
2022-09-06T10:04:43.262Z,27.96
2022-09-06T10:07:14.862Z,28.08
2022-09-06T10:09:45.926Z,28.10
2022-09-06T10:12:19.258Z,28.00
2022-09-06T10:14:49.646Z,28.21
2022-09-06T10:17:31.067Z,28.36
2022-09-06T10:20:03.532Z,28.57
2022-09-06T10:22:33.785Z,28.88
2022-09-06T10:25:43.007Z,29.24
2022-09-06T10:28:28.585Z,29.28
2022-09-06T10:31:07.356Z,29.57
2022-09-06T10:33:52.291Z,29.77
2022-09-06T10:36:27.924Z,30.03
2022-09-06T10:39:03.705Z,30.36
2022-09-06T10:41:44.812Z,30.54
2022-09-06T10:44:35.559Z,30.69
2022-09-06T10:47:10.624Z,30.14
2022-09-06T10:49:45.414Z,29.98
2022-09-06T10:52:19.462Z,30.05
2022-09-06T10:54:47.895Z,29.97
2022-09-06T11:00:13.656Z,30.46
2022-09-06T11:02:48.884Z,30.15
2022-09-06T11:05:39.421Z,30.03
2022-09-06T11:11:08.106Z,30.57
2022-09-06T11:13:36.710Z,30.97
2022-09-06T11:16:10.160Z,31.06
2022-09-06T11:18:44.065Z,31.53
2022-09-06T11:21:50.687Z,31.73
2022-09-06T11:24:27.031Z,31.80
2022-09-06T11:27:03.258Z,32.09
2022-09-06T11:29:33.476Z,32.36
2022-09-06T11:32:19.057Z,32.58
2022-09-06T11:34:55.595Z,32.74
2022-09-06T11:37:29.180Z,32.90
2022-09-06T11:40:29.490Z,32.74
2022-09-06T11:43:13.318Z,32.86
2022-09-06T11:45:46.559Z,33.10
2022-09-06T11:48:36.475Z,33.07
2022-09-06T11:51:11.010Z,33.12
2022-09-06T11:54:05.380Z,33.39
2022-09-06T11:56:40.864Z,33.68
2022-09-06T11:59:19.566Z,33.93
2022-09-06T12:02:01.264Z,34.11
2022-09-06T12:05:16.710Z,34.32
2022-09-06T12:08:32.701Z,34.26
2022-09-06T12:11:21.718Z,34.40
2022-09-06T12:13:56.298Z,34.39
2022-09-06T12:16:26.150Z,34.10
2022-09-06T12:18:58.173Z,33.45
2022-09-06T12:21:52.888Z,33.43
2022-09-06T12:24:52.498Z,33.67
2022-09-06T12:27:24.515Z,34.07
2022-09-06T12:29:59.601Z,33.96
2022-09-06T12:32:36.090Z,33.45
2022-09-06T12:38:00.648Z,34.11
2022-09-06T12:40:31.785Z,33.73
2022-09-06T12:43:04.511Z,33.57
2022-09-06T12:45:34.357Z,33.54
2022-09-06T12:48:09.105Z,33.49
2022-09-06T12:50:39.176Z,33.39
2022-09-06T12:53:24.463Z,33.47
2022-09-06T12:56:05.576Z,33.56
2022-09-06T12:58:36.485Z,33.68
2022-09-06T13:01:11.353Z,33.91
2022-09-06T13:03:45.564Z,33.96
2022-09-06T13:06:26.018Z,34.26
2022-09-06T13:08:58.069Z,34.18
2022-09-06T13:11:31.554Z,34.28
2022-09-06T13:14:14.026Z,34.37
2022-09-06T13:16:46.820Z,34.36
2022-09-06T13:19:18.896Z,34.16
2022-09-06T13:21:47.987Z,34.00
2022-09-06T13:24:21.149Z,33.94
2022-09-06T13:26:50.727Z,33.55
2022-09-06T13:29:31.352Z,33.46
2022-09-06T13:32:03.677Z,33.32
2022-09-06T13:34:34.132Z,33.26
2022-09-06T13:37:06.344Z,33.20
2022-09-06T13:39:37.574Z,33.01
2022-09-06T13:42:08.368Z,32.92
2022-09-06T13:44:39.810Z,32.87
2022-09-06T13:47:08.786Z,32.89
2022-09-06T13:49:37.111Z,32.88
2022-09-06T13:52:06.457Z,32.74
2022-09-06T13:54:35.982Z,32.59
2022-09-06T13:57:04.740Z,32.57
2022-09-06T13:59:33.878Z,32.50
2022-09-06T14:02:07.211Z,32.09
2022-09-06T14:04:36.224Z,32.03
2022-09-06T14:07:05.564Z,32.08
2022-09-06T14:09:34.660Z,32.44
2022-09-06T14:12:03.232Z,32.74
2022-09-06T14:14:31.606Z,32.91
2022-09-06T14:17:00.401Z,33.30
2022-09-06T14:19:30.134Z,33.02
2022-09-06T14:21:58.511Z,32.82
2022-09-06T14:24:26.893Z,32.59
2022-09-06T14:26:55.270Z,32.45
2022-09-06T14:29:24.031Z,32.50
2022-09-06T14:31:52.447Z,32.50
2022-09-06T14:34:21.984Z,32.52
2022-09-06T14:36:51.988Z,32.68
2022-09-06T14:39:20.510Z,32.83
2022-09-06T14:41:49.275Z,33.15
2022-09-06T14:44:18.156Z,33.29
2022-09-06T14:46:47.731Z,33.33
2022-09-06T14:49:16.095Z,33.41
2022-09-06T14:51:45.930Z,33.68
2022-09-06T14:54:15.850Z,33.98
2022-09-06T14:56:44.697Z,34.04
2022-09-06T14:59:13.414Z,34.33
2022-09-06T15:01:42.084Z,34.54
2022-09-06T15:04:12.278Z,34.40
2022-09-06T15:06:44.919Z,34.27
2022-09-06T15:09:16.507Z,34.49
2022-09-06T15:11:48.026Z,34.74
2022-09-06T15:14:18.153Z,34.99
2022-09-06T15:16:49.784Z,35.20
2022-09-06T15:19:21.387Z,35.30
2022-09-06T15:21:50.256Z,35.27
2022-09-06T15:24:21.096Z,35.17
2022-09-06T15:26:49.554Z,35.03
2022-09-06T15:29:19.532Z,34.86
2022-09-06T15:31:50.894Z,34.74
2022-09-06T15:34:20.477Z,34.50
2022-09-06T15:36:49.430Z,34.29
2022-09-06T15:39:20.574Z,34.15
2022-09-06T15:41:51.547Z,34.10
2022-09-06T15:44:22.000Z,33.94
2022-09-06T15:46:52.001Z,33.71
2022-09-06T15:49:27.483Z,33.44
2022-09-06T15:51:57.641Z,33.28
2022-09-06T15:54:42.613Z,33.08
2022-09-06T15:57:11.497Z,32.93
2022-09-06T15:59:40.901Z,33.09
2022-09-06T16:02:09.696Z,33.27
2022-09-06T16:04:38.908Z,33.30
2022-09-06T16:07:07.511Z,33.24
2022-09-06T16:09:38.199Z,32.98
2022-09-06T16:12:07.285Z,32.73
2022-09-06T16:14:35.695Z,32.49
2022-09-06T16:17:04.921Z,32.23
2022-09-06T16:19:33.810Z,32.06
2022-09-06T16:22:02.477Z,31.89
2022-09-06T16:24:31.570Z,31.72
2022-09-06T16:27:01.276Z,31.60
2022-09-06T16:29:30.139Z,31.50
2022-09-06T16:32:00.527Z,31.36
2022-09-06T16:34:29.278Z,31.27
2022-09-06T16:36:58.071Z,31.19
2022-09-06T16:39:26.984Z,31.09
2022-09-06T16:41:55.804Z,30.99
2022-09-06T16:44:26.262Z,30.92
2022-09-06T16:46:57.180Z,30.84
2022-09-06T16:49:25.681Z,30.74
2022-09-06T16:51:54.051Z,30.62
2022-09-06T16:54:22.498Z,30.53
2022-09-06T16:56:50.873Z,30.43
2022-09-06T16:59:19.663Z,30.34
2022-09-06T17:01:49.600Z,30.24
2022-09-06T17:04:18.682Z,30.13
2022-09-06T17:06:47.404Z,30.01
2022-09-06T17:09:18.639Z,29.91
2022-09-06T17:11:50.460Z,29.80
2022-09-06T17:14:19.393Z,29.65
2022-09-06T17:17:06.843Z,29.63
2022-09-06T17:19:37.585Z,29.50
2022-09-06T17:22:06.459Z,29.40
2022-09-06T17:24:35.708Z,29.32
2022-09-06T17:27:04.210Z,29.23
2022-09-06T17:29:32.821Z,29.13
2022-09-06T17:32:04.497Z,29.01
2022-09-06T17:34:33.632Z,28.92
2022-09-06T17:37:02.324Z,28.86
2022-09-06T17:39:30.908Z,28.74
2022-09-06T17:42:00.496Z,28.65
2022-09-06T17:44:28.877Z,28.54
2022-09-06T17:47:14.437Z,28.42
2022-09-06T17:49:44.767Z,28.27
2022-09-06T17:52:13.904Z,28.22
2022-09-06T17:54:42.683Z,28.17
2022-09-06T17:57:11.047Z,28.03
2022-09-06T17:59:40.194Z,27.96
2022-09-06T18:02:08.950Z,27.85
2022-09-06T18:04:38.288Z,27.65
2022-09-06T18:07:08.028Z,27.59
2022-09-06T18:09:37.711Z,27.43
2022-09-06T18:12:06.792Z,27.37
2022-09-06T18:14:35.991Z,27.31
2022-09-06T18:17:04.412Z,27.28
2022-09-06T18:19:33.158Z,27.22
2022-09-06T18:22:01.605Z,27.18
2022-09-06T18:24:31.994Z,27.15
2022-09-06T18:27:03.198Z,27.03
2022-09-06T18:29:32.810Z,26.86
2022-09-06T18:32:02.023Z,26.69
2022-09-06T18:34:30.841Z,26.59
2022-09-06T18:36:59.763Z,26.57
2022-09-06T18:39:29.156Z,26.59
2022-09-06T18:42:02.067Z,26.64
2022-09-06T18:44:32.604Z,26.44
2022-09-06T18:47:02.650Z,26.32
2022-09-06T18:49:32.537Z,26.38
2022-09-06T18:52:01.389Z,26.42
2022-09-06T18:54:31.140Z,26.27
2022-09-06T18:57:00.943Z,26.17
2022-09-06T18:59:29.893Z,26.08
2022-09-06T19:01:58.489Z,26.03
2022-09-06T19:04:27.135Z,25.99
2022-09-06T19:06:55.504Z,26.01
2022-09-06T19:09:24.190Z,25.93
2022-09-06T19:11:53.232Z,25.95
2022-09-06T19:14:23.259Z,25.98
2022-09-06T19:16:53.844Z,25.91
2022-09-06T19:19:23.107Z,25.87
2022-09-06T19:21:52.411Z,25.78
2022-09-06T19:24:22.620Z,25.66
2022-09-06T19:26:52.770Z,25.54
2022-09-06T19:29:21.928Z,25.52
2022-09-06T19:31:52.908Z,25.47
2022-09-06T19:34:22.040Z,25.45
2022-09-06T19:36:55.553Z,25.44
2022-09-06T19:39:31.183Z,25.36
2022-09-06T19:42:02.518Z,25.34
2022-09-06T19:44:30.910Z,25.28
2022-09-06T19:47:01.326Z,25.20
2022-09-06T19:49:31.178Z,25.22
2022-09-06T19:51:59.536Z,25.21
2022-09-06T19:54:28.808Z,25.12
2022-09-06T19:56:57.160Z,25.09
2022-09-06T19:59:25.868Z,25.06
2022-09-06T20:01:54.750Z,25.05
2022-09-06T20:04:25.208Z,24.93
2022-09-06T20:06:53.620Z,24.92
2022-09-06T20:09:22.757Z,24.83
2022-09-06T20:11:51.722Z,24.70
2022-09-06T20:14:20.089Z,24.52
2022-09-06T20:16:49.060Z,24.42
2022-09-06T20:19:17.660Z,24.43
2022-09-06T20:21:48.307Z,24.45
2022-09-06T20:24:17.085Z,24.45
2022-09-06T20:26:45.428Z,24.45
2022-09-06T20:29:14.183Z,24.17
2022-09-06T20:31:43.459Z,24.10
2022-09-06T20:34:16.059Z,24.08
2022-09-06T20:36:45.232Z,24.04
2022-09-06T20:39:15.363Z,24.06
2022-09-06T20:41:43.764Z,23.97
2022-09-06T20:44:12.231Z,24.00
2022-09-06T20:46:41.490Z,23.93
2022-09-06T20:49:10.702Z,23.88
2022-09-06T20:51:43.123Z,23.86
2022-09-06T20:54:12.624Z,23.87
2022-09-06T20:56:43.132Z,23.81
2022-09-06T20:59:14.124Z,23.77
2022-09-06T21:01:44.526Z,23.77
2022-09-06T21:04:15.836Z,23.72
2022-09-06T21:06:46.135Z,23.72
2022-09-06T21:09:15.706Z,23.71
2022-09-06T21:11:46.880Z,23.66
2022-09-06T21:14:15.340Z,23.56
2022-09-06T21:16:43.864Z,23.51
2022-09-06T21:19:13.127Z,23.50
2022-09-06T21:21:41.932Z,23.45
2022-09-06T21:24:12.240Z,23.46
2022-09-06T21:26:43.322Z,23.45
2022-09-06T21:29:13.800Z,23.45
2022-09-06T21:31:42.992Z,23.33
2022-09-06T21:34:16.971Z,23.28
2022-09-06T21:36:46.851Z,23.28
2022-09-06T21:39:16.042Z,23.29
2022-09-06T21:41:45.318Z,23.28
2022-09-06T21:44:15.204Z,23.21
2022-09-06T21:46:44.750Z,23.08
2022-09-06T21:49:14.721Z,23.04
2022-09-06T21:51:44.434Z,22.93
2022-09-06T21:54:12.911Z,22.90
2022-09-06T21:56:42.297Z,22.91
2022-09-06T21:59:11.518Z,22.86
2022-09-06T22:01:44.884Z,22.79
2022-09-06T22:04:14.880Z,22.87
2022-09-06T22:06:43.259Z,22.92
2022-09-06T22:09:13.412Z,22.84
2022-09-06T22:11:44.299Z,22.83
2022-09-06T22:14:14.855Z,22.68
2022-09-06T22:16:45.356Z,22.46
2022-09-06T22:19:14.524Z,22.44
2022-09-06T22:21:42.973Z,22.47
2022-09-06T22:24:14.657Z,22.48
2022-09-06T22:26:43.752Z,22.49
2022-09-06T22:29:15.053Z,22.43
2022-09-06T22:31:46.125Z,22.41
2022-09-06T22:34:14.616Z,22.37
2022-09-06T22:36:43.916Z,22.37
2022-09-06T22:39:12.378Z,22.34
2022-09-06T22:41:41.530Z,22.35
2022-09-06T22:44:09.911Z,22.30
2022-09-06T22:46:39.096Z,22.16
2022-09-06T22:49:08.859Z,22.12
2022-09-06T22:51:38.177Z,22.06
2022-09-06T22:54:07.331Z,22.00
2022-09-06T22:56:35.754Z,21.92
2022-09-06T22:59:05.363Z,21.88
2022-09-06T23:01:39.174Z,21.80
2022-09-06T23:04:10.743Z,21.78
2022-09-06T23:06:39.242Z,21.79
2022-09-06T23:09:08.707Z,21.80
2022-09-06T23:11:37.496Z,21.86
2022-09-06T23:14:05.916Z,21.83
2022-09-06T23:16:35.118Z,21.84
2022-09-06T23:19:03.600Z,21.75
2022-09-06T23:21:35.268Z,21.73
2022-09-06T23:24:04.517Z,21.78
2022-09-06T23:26:34.195Z,21.75
2022-09-06T23:29:03.028Z,21.67
2022-09-06T23:31:32.878Z,21.55
2022-09-06T23:34:02.470Z,21.52
2022-09-06T23:36:32.812Z,21.55
2022-09-06T23:39:02.793Z,21.52
2022-09-06T23:41:32.294Z,21.53
2022-09-06T23:44:01.802Z,21.52
2022-09-06T23:46:31.463Z,21.49
2022-09-06T23:48:59.865Z,21.45
2022-09-06T23:51:29.107Z,21.43
2022-09-06T23:53:58.340Z,21.44
2022-09-06T23:56:28.911Z,21.37
2022-09-06T23:58:57.467Z,21.37
